Time;durP1;ratioP1;P1;durP2;ratioP2;P2;SDS_P1;SDS_P2;PMS_P1;PMS_P2;Temp;Humidity;BMP_temperature;BMP_pressure;BME280_temperature;BME280_humidity;BME280_pressure;Samples;Min_cycle;Max_cycle;Signal;HPM_P1;HPM_P2
2024/01/19 00:00:20;;;;;;;24.73;23.73;;;;;;;;;;4225549;28;20059;-58
2024/01/19 00:02:22;;;;;;;27.90;25.73;;;;;;;;;;4231794;28;20079;-58
2024/01/19 00:04:24;;;;;;;25.70;24.70;;;;;;;;;;4232090;28;20043;-59
2024/01/19 00:06:26;;;;;;;25.42;24.33;;;;;;;;;;4231945;28;20123;-59
2024/01/19 00:08:27;;;;;;;28.33;26.40;;;;;;;;;;4231767;28;20040;-59
2024/01/19 00:10:30;;;;;;;25.93;24.07;;;;;;;;;;4226239;28;20282;-59
2024/01/19 00:12:35;;;;;;;27.00;24.98;;;;;;;;;;4215072;28;20097;-59
2024/01/19 00:14:37;;;;;;;26.30;24.80;;;;;;;;;;4223579;28;20035;-59
2024/01/19 00:16:42;;;;;;;26.20;24.73;;;;;;;;;;4230583;28;20518;-59
2024/01/19 00:18:44;;;;;;;27.48;25.70;;;;;;;;;;4230713;28;20063;-59
2024/01/19 00:20:45;;;;;;;26.25;24.52;;;;;;;;;;4231836;28;20072;-59
2024/01/19 00:22:47;;;;;;;27.93;26.30;;;;;;;;;;4231801;28;20503;-59
2024/01/19 00:24:48;;;;;;;27.50;25.27;;;;;;;;;;4231661;28;20285;-59
2024/01/19 00:26:50;;;;;;;29.60;27.23;;;;;;;;;;4231535;28;20273;-59
2024/01/19 00:28:52;;;;;;;29.10;26.67;;;;;;;;;;4231887;28;20118;-59
2024/01/19 00:30:54;;;;;;;26.15;24.35;;;;;;;;;;4231477;28;20065;-59
2024/01/19 00:32:56;;;;;;;26.47;24.83;;;;;;;;;;4231698;28;20043;-59
2024/01/19 00:34:57;;;;;;;26.50;24.77;;;;;;;;;;4225342;28;20032;-59
2024/01/19 00:36:59;;;;;;;26.02;24.40;;;;;;;;;;4214915;28;20043;-59
2024/01/19 00:39:01;;;;;;;29.08;25.92;;;;;;;;;;4224549;28;20036;-59
2024/01/19 00:41:02;;;;;;;26.07;24.80;;;;;;;;;;4231299;28;20399;-59
2024/01/19 00:43:04;;;;;;;25.23;23.65;;;;;;;;;;4231464;28;20071;-59
2024/01/19 00:45:06;;;;;;;26.85;25.15;;;;;;;;;;4230142;28;20126;-59
2024/01/19 00:47:08;;;;;;;26.67;24.33;;;;;;;;;;4231430;28;20035;-59
2024/01/19 00:49:09;;;;;;;24.87;23.00;;;;;;;;;;4231831;28;20048;-59
2024/01/19 00:51:11;;;;;;;27.65;25.35;;;;;;;;;;4230402;28;20510;-59
2024/01/19 00:53:13;;;;;;;27.23;25.13;;;;;;;;;;4230195;28;20047;-59
2024/01/19 00:55:14;;;;;;;26.23;24.70;;;;;;;;;;4231485;28;20054;-59
2024/01/19 00:57:16;;;;;;;26.40;25.07;;;;;;;;;;4231108;28;20059;-59
2024/01/19 00:59:17;;;;;;;25.53;24.13;;;;;;;;;;4230082;28;20039;-59
2024/01/19 01:01:19;;;;;;;25.15;23.92;;;;;;;;;;4230659;28;20285;-59
2024/01/19 01:03:22;;;;;;;24.90;23.23;;;;;;;;;;4216431;28;20389;-59
2024/01/19 01:05:24;;;;;;;29.38;27.20;;;;;;;;;;4214186;28;20043;-59
2024/01/19 01:07:26;;;;;;;26.98;25.52;;;;;;;;;;4225478;28;20556;-58
2024/01/19 01:09:27;;;;;;;28.63;26.57;;;;;;;;;;4230757;28;20376;-59
2024/01/19 01:11:29;;;;;;;26.95;25.10;;;;;;;;;;4230772;28;20297;-59
2024/01/19 01:13:31;;;;;;;27.98;26.52;;;;;;;;;;4231067;28;20122;-59
2024/01/19 01:15:33;;;;;;;28.52;26.40;;;;;;;;;;4230615;28;20064;-59
2024/01/19 01:17:34;;;;;;;26.77;24.57;;;;;;;;;;4230066;28;20047;-59
2024/01/19 01:19:36;;;;;;;27.92;26.10;;;;;;;;;;4230606;28;20570;-58
2024/01/19 01:21:38;;;;;;;27.73;25.80;;;;;;;;;;4230780;28;20398;-59
2024/01/19 01:23:39;;;;;;;26.80;25.23;;;;;;;;;;4230870;28;20092;-59
2024/01/19 01:25:41;;;;;;;29.15;26.98;;;;;;;;;;4230841;28;20035;-59
2024/01/19 01:27:43;;;;;;;26.33;24.33;;;;;;;;;;4231095;28;20127;-59
2024/01/19 01:29:44;;;;;;;29.00;26.90;;;;;;;;;;4231196;28;20043;-59
2024/01/19 01:31:47;;;;;;;27.35;25.17;;;;;;;;;;4230821;28;20384;-59
2024/01/19 01:33:49;;;;;;;27.75;25.83;;;;;;;;;;4230459;28;20036;-59
2024/01/19 01:35:51;;;;;;;29.17;26.90;;;;;;;;;;4230673;28;20035;-59
2024/01/19 01:37:52;;;;;;;28.33;25.63;;;;;;;;;;4231089;28;20487;-58
2024/01/19 01:39:54;;;;;;;28.53;26.33;;;;;;;;;;4230726;28;20536;-59
2024/01/19 01:41:55;;;;;;;25.63;23.87;;;;;;;;;;4229849;28;20122;-59
2024/01/19 01:43:57;;;;;;;29.10;26.57;;;;;;;;;;4230662;28;20443;-59
2024/01/19 01:45:58;;;;;;;26.60;24.67;;;;;;;;;;4229325;28;20066;-59
2024/01/19 01:48:00;;;;;;;29.42;27.60;;;;;;;;;;4230699;28;20415;-59
2024/01/19 01:50:02;;;;;;;29.08;26.85;;;;;;;;;;4230580;28;20067;-59
2024/01/19 01:52:04;;;;;;;29.55;27.13;;;;;;;;;;4230667;28;20058;-59
2024/01/19 01:54:07;;;;;;;27.63;25.70;;;;;;;;;;4230664;28;20079;-59
2024/01/19 01:56:08;;;;;;;;;;;;;;;;;;4231093;28;20031;-59
2024/01/19 01:58:10;;;;;;;28.20;26.25;;;;;;;;;;4230619;28;19920;-59
2024/01/19 02:00:13;;;;;;;26.63;25.02;;;;;;;;;;4230861;28;20051;-59
2024/01/19 02:02:15;;;;;;;27.52;25.88;;;;;;;;;;4232264;28;20039;-59
2024/01/19 02:04:17;;;;;;;28.40;26.42;;;;;;;;;;4231676;22;20036;-67
2024/01/19 02:06:19;;;;;;;27.02;25.40;;;;;;;;;;4231923;28;20031;-68
2024/01/19 02:08:21;;;;;;;27.92;26.08;;;;;;;;;;4201654;28;20127;-67
2024/01/19 02:10:23;;;;;;;27.35;25.15;;;;;;;;;;4233838;28;20069;-68
2024/01/19 02:12:25;;;;;;;24.45;23.25;;;;;;;;;;4233983;28;20557;-68
2024/01/19 02:14:26;;;;;;;28.08;25.95;;;;;;;;;;4233865;28;20495;-68
2024/01/19 02:16:28;;;;;;;28.13;26.55;;;;;;;;;;4233740;28;20494;-68
2024/01/19 02:18:30;;;;;;;27.17;25.37;;;;;;;;;;4234139;28;20444;-69
2024/01/19 02:20:31;;;;;;;26.67;25.27;;;;;;;;;;4233737;28;20089;-68
2024/01/19 02:22:33;;;;;;;28.67;26.40;;;;;;;;;;4233775;28;20441;-68
2024/01/19 02:24:35;;;;;;;26.93;25.27;;;;;;;;;;4233802;28;20093;-68
2024/01/19 02:26:38;;;;;;;25.65;23.98;;;;;;;;;;4233888;28;20036;-68
2024/01/19 02:28:40;;;;;;;27.75;25.88;;;;;;;;;;4233973;28;20088;-68
2024/01/19 02:30:42;;;;;;;25.90;24.57;;;;;;;;;;4233496;28;20047;-68
2024/01/19 02:32:44;;;;;;;27.73;26.05;;;;;;;;;;4233840;28;20392;-68
2024/01/19 02:34:46;;;;;;;26.47;24.63;;;;;;;;;;4211196;28;20068;-67
2024/01/19 02:36:48;;;;;;;25.10;23.90;;;;;;;;;;4216833;28;20282;-68
2024/01/19 02:38:50;;;;;;;26.35;24.98;;;;;;;;;;4216761;28;20043;-67
2024/01/19 02:40:51;;;;;;;28.42;26.88;;;;;;;;;;4216599;28;20033;-68
2024/01/19 02:42:53;;;;;;;26.77;25.02;;;;;;;;;;4216912;28;20093;-68
2024/01/19 02:44:55;;;;;;;27.10;24.67;;;;;;;;;;4216814;28;20071;-68
2024/01/19 02:46:57;;;;;;;27.20;25.95;;;;;;;;;;4216711;28;20517;-68
2024/01/19 02:48:59;;;;;;;28.10;26.33;;;;;;;;;;4216432;28;20059;-67
2024/01/19 02:51:00;;;;;;;27.05;24.92;;;;;;;;;;4216356;28;20128;-67
2024/01/19 02:53:02;;;;;;;25.35;23.50;;;;;;;;;;4216355;28;20438;-68
2024/01/19 02:55:04;;;;;;;24.85;23.70;;;;;;;;;;4216482;28;20039;-68
2024/01/19 02:57:06;;;;;;;27.83;26.27;;;;;;;;;;4198551;28;20047;-68
2024/01/19 02:59:08;;;;;;;25.40;24.00;;;;;;;;;;4221094;28;20047;-68
2024/01/19 03:01:10;;;;;;;25.48;23.60;;;;;;;;;;4233037;28;20490;-68
2024/01/19 03:03:14;;;;;;;25.58;23.98;;;;;;;;;;4219207;28;20101;-67
2024/01/19 03:05:15;;;;;;;25.65;24.23;;;;;;;;;;4232827;28;20031;-67
2024/01/19 03:07:17;;;;;;;25.45;24.25;;;;;;;;;;4232983;28;20047;-68
2024/01/19 03:09:19;;;;;;;25.60;24.10;;;;;;;;;;4232904;28;20031;-68
2024/01/19 03:11:20;;;;;;;27.05;25.50;;;;;;;;;;4233251;28;20042;-68
2024/01/19 03:13:22;;;;;;;26.40;25.10;;;;;;;;;;4232460;28;20063;-64
2024/01/19 03:15:24;;;;;;;25.37;24.37;;;;;;;;;;4232608;28;20449;-64
2024/01/19 03:17:27;;;;;;;26.23;24.73;;;;;;;;;;4231977;28;20354;-64
2024/01/19 03:19:29;;;;;;;27.63;25.30;;;;;;;;;;4231518;28;20277;-63
2024/01/19 03:21:30;;;;;;;26.33;24.80;;;;;;;;;;4231113;28;20089;-63
2024/01/19 03:23:32;;;;;;;26.73;24.97;;;;;;;;;;4231391;28;20659;-63
2024/01/19 03:25:33;;;;;;;27.67;25.97;;;;;;;;;;4231448;28;20042;-64
2024/01/19 03:27:35;;;;;;;29.23;26.97;;;;;;;;;;4231356;28;20036;-64
2024/01/19 03:29:36;;;;;;;25.73;24.53;;;;;;;;;;4231361;28;20040;-63
2024/01/19 03:31:38;;;;;;;26.00;25.10;;;;;;;;;;4231180;28;20040;-65
2024/01/19 03:33:40;;;;;;;26.13;24.43;;;;;;;;;;4232372;28;20289;-64
2024/01/19 03:35:42;;;;;;;25.00;23.48;;;;;;;;;;4232512;28;20738;-64
2024/01/19 03:37:43;;;;;;;26.48;24.98;;;;;;;;;;4232835;28;20036;-64
2024/01/19 03:39:45;;;;;;;26.45;24.70;;;;;;;;;;4232510;28;20100;-63
2024/01/19 03:41:47;;;;;;;25.80;24.50;;;;;;;;;;4214294;28;20036;-64
2024/01/19 03:43:49;;;;;;;26.92;25.15;;;;;;;;;;4232804;28;20060;-65
2024/01/19 03:45:50;;;;;;;27.00;25.17;;;;;;;;;;4218222;28;20040;-64
2024/01/19 03:47:52;;;;;;;27.63;25.63;;;;;;;;;;4215550;28;20081;-64
2024/01/19 03:49:54;;;;;;;25.58;24.08;;;;;;;;;;4215489;28;20119;-64
2024/01/19 03:51:59;;;;;;;26.25;24.30;;;;;;;;;;4197583;28;20044;-64
2024/01/19 03:54:00;;;;;;;23.13;21.73;;;;;;;;;;4215393;28;20129;-64
2024/01/19 03:56:02;;;;;;;25.65;24.38;;;;;;;;;;4225492;28;20549;-64
2024/01/19 03:58:04;;;;;;;23.73;22.83;;;;;;;;;;4232487;28;20047;-63
2024/01/19 04:00:06;;;;;;;26.15;24.60;;;;;;;;;;4223697;28;20117;-63
2024/01/19 04:02:08;;;;;;;;;;;;;;;;;;4232500;28;20038;-63
2024/01/19 04:04:10;;;;;;;25.63;24.15;;;;;;;;;;4232001;28;20043;-63
2024/01/19 04:06:15;;;;;;;27.40;25.65;;;;;;;;;;4232308;28;20042;-64
2024/01/19 04:08:17;;;;;;;25.23;23.50;;;;;;;;;;4232090;28;20054;-64
2024/01/19 04:10:18;;;;;;;23.88;22.90;;;;;;;;;;4232168;28;20059;-64
2024/01/19 04:12:20;;;;;;;25.47;24.27;;;;;;;;;;4232283;28;20048;-64
2024/01/19 04:14:22;;;;;;;26.33;24.43;;;;;;;;;;4232203;28;20820;-63
2024/01/19 04:16:23;;;;;;;26.37;24.53;;;;;;;;;;4232053;28;20394;-63
2024/01/19 04:18:25;;;;;;;25.47;23.80;;;;;;;;;;4232250;28;20829;-64
2024/01/19 04:20:27;;;;;;;25.98;24.33;;;;;;;;;;4232034;28;20281;-63
2024/01/19 04:22:29;;;;;;;27.17;26.13;;;;;;;;;;4232049;28;20398;-68
2024/01/19 04:24:30;;;;;;;25.15;23.70;;;;;;;;;;4232027;28;20312;-68
2024/01/19 04:26:32;;;;;;;27.63;25.87;;;;;;;;;;4231669;28;20036;-68
2024/01/19 04:28:34;;;;;;;26.48;24.45;;;;;;;;;;4214059;28;20047;-69
2024/01/19 04:30:35;;;;;;;29.90;27.70;;;;;;;;;;4231749;28;20047;-68
2024/01/19 04:32:37;;;;;;;27.17;25.63;;;;;;;;;;4231983;28;20444;-68
2024/01/19 04:34:39;;;;;;;28.98;27.25;;;;;;;;;;4231778;28;20311;-68
2024/01/19 04:36:41;;;;;;;28.48;26.00;;;;;;;;;;4231559;28;20093;-67
2024/01/19 04:38:51;;;;;;;25.15;24.08;;;;;;;;;;4231677;28;20032;-68
2024/01/19 04:40:54;;;;;;;26.88;25.02;;;;;;;;;;4227403;28;20093;-68
2024/01/19 04:42:58;;;;;;;26.77;25.30;;;;;;;;;;4214620;28;20036;-68
2024/01/19 04:44:59;;;;;;;31.13;28.20;;;;;;;;;;4196870;28;20036;-68
2024/01/19 04:47:01;;;;;;;27.92;26.15;;;;;;;;;;4214785;28;20111;-68
2024/01/19 04:49:03;;;;;;;29.23;26.67;;;;;;;;;;4223077;28;20040;-68
2024/01/19 04:51:06;;;;;;;25.83;24.08;;;;;;;;;;4213359;28;20051;-68
2024/01/19 04:53:09;;;;;;;27.48;26.08;;;;;;;;;;4196378;28;20048;-68
2024/01/19 04:55:11;;;;;;;28.30;26.52;;;;;;;;;;4214559;28;20051;-68
2024/01/19 04:57:13;;;;;;;25.88;24.13;;;;;;;;;;4226255;28;20043;-68
2024/01/19 04:59:14;;;;;;;28.60;26.27;;;;;;;;;;4231309;28;20043;-68
2024/01/19 05:01:17;;;;;;;28.17;25.90;;;;;;;;;;4230868;28;20305;-67
2024/01/19 05:03:19;;;;;;;28.90;26.50;;;;;;;;;;4230790;28;20051;-69
2024/01/19 05:05:21;;;;;;;26.63;25.27;;;;;;;;;;4231511;28;20038;-68
2024/01/19 05:07:22;;;;;;;24.95;23.35;;;;;;;;;;4231335;28;20044;-68
2024/01/19 05:09:25;;;;;;;28.13;26.27;;;;;;;;;;4231406;28;20417;-69
2024/01/19 05:11:26;;;;;;;30.35;27.73;;;;;;;;;;4231088;28;20319;-68
2024/01/19 05:13:28;;;;;;;26.70;24.95;;;;;;;;;;4219060;28;20044;-68
2024/01/19 05:15:30;;;;;;;27.77;26.00;;;;;;;;;;4214401;28;20089;-68
2024/01/19 05:17:31;;;;;;;26.10;24.45;;;;;;;;;;4213541;28;20042;-68
2024/01/19 05:19:33;;;;;;;26.13;24.70;;;;;;;;;;4214332;28;20123;-68
2024/01/19 05:21:35;;;;;;;26.07;24.93;;;;;;;;;;4214087;28;20506;-68
2024/01/19 05:23:37;;;;;;;25.67;24.88;;;;;;;;;;4214070;28;20371;-67
2024/01/19 05:25:39;;;;;;;25.50;24.60;;;;;;;;;;4217680;28;20442;-67
2024/01/19 05:27:41;;;;;;;;;;;;;;;;;;4231126;28;20036;-67
2024/01/19 05:29:43;;;;;;;21.88;21.38;;;;;;;;;;4231061;28;19919;-68
2024/01/19 05:31:45;;;;;;;23.67;22.70;;;;;;;;;;4230932;28;20044;-68
2024/01/19 05:33:49;;;;;;;25.17;24.13;;;;;;;;;;4229364;28;20058;-64
2024/01/19 05:35:51;;;;;;;21.42;20.95;;;;;;;;;;4203185;28;20040;-64
2024/01/19 05:37:52;;;;;;;21.45;20.95;;;;;;;;;;4220155;28;20526;-64
2024/01/19 05:39:54;;;;;;;22.60;21.77;;;;;;;;;;4213873;28;20048;-63
2024/01/19 05:41:56;;;;;;;22.65;22.10;;;;;;;;;;4213950;28;20302;-63
2024/01/19 05:43:57;;;;;;;24.10;22.97;;;;;;;;;;4213687;28;20705;-63
2024/01/19 05:45:59;;;;;;;22.83;21.83;;;;;;;;;;4213632;28;20036;-63
2024/01/19 05:48:01;;;;;;;22.07;21.77;;;;;;;;;;4226163;28;20751;-63
2024/01/19 05:50:02;;;;;;;23.13;21.95;;;;;;;;;;4212805;28;20369;-63
2024/01/19 05:52:04;;;;;;;24.48;23.23;;;;;;;;;;4222465;28;20106;-64
2024/01/19 05:54:06;;;;;;;24.93;23.40;;;;;;;;;;4230787;28;20043;-63
2024/01/19 05:56:07;;;;;;;25.27;24.02;;;;;;;;;;4230895;28;20043;-64
2024/01/19 05:58:09;;;;;;;25.57;24.27;;;;;;;;;;4230929;28;20097;-63
2024/01/19 06:00:11;;;;;;;26.33;24.33;;;;;;;;;;4230822;28;20063;-63
2024/01/19 06:02:13;;;;;;;27.30;25.35;;;;;;;;;;4230458;28;20055;-63
2024/01/19 06:04:14;;;;;;;26.63;24.70;;;;;;;;;;4230524;28;20102;-64
2024/01/19 06:06:16;;;;;;;25.83;24.03;;;;;;;;;;4229238;28;20634;-64
2024/01/19 06:08:18;;;;;;;26.52;25.05;;;;;;;;;;4230366;28;20046;-64
2024/01/19 06:10:19;;;;;;;24.87;23.57;;;;;;;;;;4230395;28;20043;-64
2024/01/19 06:12:21;;;;;;;26.70;24.88;;;;;;;;;;4230326;28;20293;-64
2024/01/19 06:14:23;;;;;;;25.57;24.23;;;;;;;;;;4212178;28;20075;-63
2024/01/19 06:16:25;;;;;;;28.63;26.65;;;;;;;;;;4230453;28;20067;-63
2024/01/19 06:18:27;;;;;;;26.75;25.25;;;;;;;;;;4230256;28;20071;-62
2024/01/19 06:20:29;;;;;;;27.80;26.02;;;;;;;;;;4230377;28;20032;-63
2024/01/19 06:22:31;;;;;;;26.92;25.30;;;;;;;;;;4211610;28;20546;-62
2024/01/19 06:24:35;;;;;;;27.38;25.23;;;;;;;;;;4205465;28;20403;-62
2024/01/19 06:26:36;;;;;;;26.55;24.15;;;;;;;;;;4217186;28;20031;-62
2024/01/19 06:28:38;;;;;;;29.73;27.20;;;;;;;;;;4230666;28;20465;-61
2024/01/19 06:30:42;;;;;;;31.65;29.30;;;;;;;;;;4230495;28;20338;-61
2024/01/19 06:32:44;;;;;;;29.33;27.75;;;;;;;;;;4230550;28;20063;-61
2024/01/19 06:34:45;;;;;;;28.48;26.52;;;;;;;;;;4219084;28;20059;-62
2024/01/19 06:36:47;;;;;;;31.00;28.33;;;;;;;;;;4230335;28;20046;-62
2024/01/19 06:38:52;;;;;;;27.80;25.30;;;;;;;;;;4230628;28;20036;-62
2024/01/19 06:40:54;;;;;;;29.67;27.77;;;;;;;;;;4230475;28;20047;-61
2024/01/19 06:42:55;;;;;;;29.97;27.13;;;;;;;;;;4212488;28;20036;-61
2024/01/19 06:45:01;;;;;;;32.00;28.77;;;;;;;;;;4230387;28;20036;-62
2024/01/19 06:47:03;;;;;;;31.53;28.87;;;;;;;;;;4230171;28;20059;-62
2024/01/19 06:49:04;;;;;;;32.63;29.30;;;;;;;;;;4223110;28;20043;-62
2024/01/19 06:51:06;;;;;;;33.40;30.63;;;;;;;;;;4232648;28;20122;-62
2024/01/19 06:53:09;;;;;;;35.17;30.70;;;;;;;;;;4233528;28;20125;-62
2024/01/19 06:55:11;;;;;;;34.08;29.67;;;;;;;;;;4233387;28;20044;-61
2024/01/19 06:57:12;;;;;;;32.17;29.15;;;;;;;;;;4233278;28;20522;-62
2024/01/19 06:59:16;;;;;;;31.65;29.38;;;;;;;;;;4233389;28;20031;-60
2024/01/19 07:01:18;;;;;;;28.35;26.42;;;;;;;;;;4232796;28;20104;-61
2024/01/19 07:03:20;;;;;;;32.50;29.95;;;;;;;;;;4232820;28;20051;-62
2024/01/19 07:05:21;;;;;;;32.13;30.07;;;;;;;;;;4233219;28;20039;-61
2024/01/19 07:07:23;;;;;;;29.90;27.73;;;;;;;;;;4214679;28;20297;-61
2024/01/19 07:09:28;;;;;;;31.27;29.00;;;;;;;;;;4233040;28;20077;-62
2024/01/19 07:11:30;;;;;;;30.67;28.80;;;;;;;;;;4233002;28;20043;-62
2024/01/19 07:13:32;;;;;;;29.65;27.35;;;;;;;;;;4232985;28;20039;-62
2024/01/19 07:15:33;;;;;;;27.50;25.67;;;;;;;;;;4232828;28;20039;-62
2024/01/19 07:17:35;;;;;;;32.13;29.88;;;;;;;;;;4214900;28;20343;-62
2024/01/19 07:19:37;;;;;;;34.05;30.95;;;;;;;;;;4232779;28;20035;-62
2024/01/19 07:21:39;;;;;;;33.40;30.20;;;;;;;;;;4232829;28;20070;-62
2024/01/19 07:23:41;;;;;;;29.63;27.42;;;;;;;;;;4233028;28;20119;-62
2024/01/19 07:25:43;;;;;;;32.70;29.80;;;;;;;;;;4232680;28;20036;-62
2024/01/19 07:27:44;;;;;;;32.83;30.07;;;;;;;;;;4232658;28;20040;-62
2024/01/19 07:29:46;;;;;;;34.07;31.03;;;;;;;;;;4214421;28;20039;-62
2024/01/19 07:31:48;;;;;;;30.17;27.93;;;;;;;;;;4232630;28;20698;-62
2024/01/19 07:33:49;;;;;;;30.85;28.05;;;;;;;;;;4232928;28;20281;-62
2024/01/19 07:35:51;;;;;;;31.17;28.42;;;;;;;;;;4232707;28;20039;-62
2024/01/19 07:37:53;;;;;;;30.73;28.15;;;;;;;;;;4232894;28;20085;-62
2024/01/19 07:39:55;;;;;;;30.87;28.47;;;;;;;;;;4232427;28;20088;-62
2024/01/19 07:41:56;;;;;;;32.67;30.10;;;;;;;;;;4232490;28;20507;-62
2024/01/19 07:43:58;;;;;;;29.60;27.58;;;;;;;;;;4229130;28;20039;-62
2024/01/19 07:46:00;;;;;;;30.27;27.95;;;;;;;;;;4227799;28;20375;-62
2024/01/19 07:48:02;;;;;;;28.60;26.50;;;;;;;;;;4232467;28;20040;-62
2024/01/19 07:50:04;;;;;;;30.45;28.27;;;;;;;;;;4232392;28;20044;-62
2024/01/19 07:52:06;;;;;;;;;;;;;;;;;;4232953;28;20119;-62
2024/01/19 07:54:08;;;;;;;31.20;28.55;;;;;;;;;;4232688;28;20354;-61
2024/01/19 07:56:09;;;;;;;30.58;28.10;;;;;;;;;;4232273;28;20121;-62
2024/01/19 07:58:11;;;;;;;28.50;25.92;;;;;;;;;;4232260;28;20043;-62
2024/01/19 08:00:13;;;;;;;31.63;26.63;;;;;;;;;;4231796;28;20096;-63
2024/01/19 08:02:14;;;;;;;27.38;25.50;;;;;;;;;;4232480;28;20023;-61
2024/01/19 08:04:16;;;;;;;28.37;26.43;;;;;;;;;;4231966;28;20147;-62
2024/01/19 08:06:18;;;;;;;29.60;26.80;;;;;;;;;;4213780;28;20295;-62
2024/01/19 08:08:19;;;;;;;31.83;28.85;;;;;;;;;;4231722;28;20506;-61
2024/01/19 08:10:21;;;;;;;29.30;27.03;;;;;;;;;;4232173;28;20040;-62
2024/01/19 08:12:23;;;;;;;30.40;27.48;;;;;;;;;;4232120;28;20285;-62
2024/01/19 08:14:24;;;;;;;26.80;25.03;;;;;;;;;;4231771;28;20048;-61
2024/01/19 08:16:26;;;;;;;30.80;27.97;;;;;;;;;;4213544;28;20040;-63
2024/01/19 08:18:33;;;;;;;28.53;26.57;;;;;;;;;;4231852;28;20122;-62
2024/01/19 08:20:38;;;;;;;29.27;27.05;;;;;;;;;;4231451;28;21069;-62
2024/01/19 08:22:40;;;;;;;26.77;25.00;;;;;;;;;;4231592;28;20395;-61
2024/01/19 08:24:41;;;;;;;29.35;26.92;;;;;;;;;;4231458;28;20273;-62
2024/01/19 08:26:43;;;;;;;27.38;25.58;;;;;;;;;;4202182;28;20044;-62
2024/01/19 08:28:46;;;;;;;28.65;26.27;;;;;;;;;;4196496;28;20111;-62
2024/01/19 08:30:48;;;;;;;28.50;26.13;;;;;;;;;;4230905;28;20036;-62
2024/01/19 08:32:49;;;;;;;29.02;26.80;;;;;;;;;;4231415;28;20039;-62
2024/01/19 08:34:51;;;;;;;31.73;29.00;;;;;;;;;;4231234;28;20044;-62
2024/01/19 08:36:53;;;;;;;28.77;26.90;;;;;;;;;;4231205;28;20039;-62
2024/01/19 08:38:54;;;;;;;29.50;26.60;;;;;;;;;;4231426;28;20065;-62
2024/01/19 08:40:56;;;;;;;26.70;24.52;;;;;;;;;;4222963;28;20282;-62
2024/01/19 08:42:58;;;;;;;28.40;25.87;;;;;;;;;;4231228;28;20502;-62
2024/01/19 08:45:04;;;;;;;26.75;24.63;;;;;;;;;;4231161;28;20308;-62
2024/01/19 08:47:06;;;;;;;28.10;26.25;;;;;;;;;;4231226;28;20223;-62
2024/01/19 08:49:07;;;;;;;27.10;25.17;;;;;;;;;;4231597;28;20036;-61
2024/01/19 08:51:09;;;;;;;29.63;27.37;;;;;;;;;;4231291;28;20614;-61
2024/01/19 08:53:11;;;;;;;29.63;27.53;;;;;;;;;;4231356;28;20273;-62
2024/01/19 08:55:12;;;;;;;29.27;26.93;;;;;;;;;;4231319;28;20467;-62
2024/01/19 08:57:14;;;;;;;30.15;27.70;;;;;;;;;;4231374;28;20043;-61
2024/01/19 08:59:18;;;;;;;27.83;25.55;;;;;;;;;;4231245;28;20043;-63
2024/01/19 09:01:19;;;;;;;29.13;26.48;;;;;;;;;;4230682;28;20122;-62
2024/01/19 09:03:22;;;;;;;29.35;26.13;;;;;;;;;;4230638;28;20048;-61
2024/01/19 09:05:24;;;;;;;26.30;24.25;;;;;;;;;;4231354;28;20047;-61
2024/01/19 09:07:26;;;;;;;30.70;28.00;;;;;;;;;;4230757;28;20380;-62
2024/01/19 09:09:28;;;;;;;28.33;25.55;;;;;;;;;;4230620;28;20527;-61
2024/01/19 09:11:34;;;;;;;28.23;26.20;;;;;;;;;;4230071;28;20035;-62
2024/01/19 09:13:37;;;;;;;27.45;25.20;;;;;;;;;;4231015;28;20674;-63
2024/01/19 09:15:39;;;;;;;24.75;22.98;;;;;;;;;;4230745;28;20126;-62
2024/01/19 09:17:40;;;;;;;28.02;25.70;;;;;;;;;;4230763;28;20495;-62
2024/01/19 09:19:42;;;;;;;27.23;25.33;;;;;;;;;;4230782;28;20047;-62
2024/01/19 09:21:44;;;;;;;30.25;27.40;;;;;;;;;;4230023;28;20067;-62
2024/01/19 09:23:46;;;;;;;28.65;26.30;;;;;;;;;;4214038;28;20439;-63
2024/01/19 09:25:48;;;;;;;27.13;25.17;;;;;;;;;;4195996;28;20048;-62
2024/01/19 09:27:49;;;;;;;27.15;25.13;;;;;;;;;;4214112;28;20067;-62
2024/01/19 09:29:52;;;;;;;27.70;25.50;;;;;;;;;;4222219;28;20051;-62
2024/01/19 09:31:54;;;;;;;24.85;23.50;;;;;;;;;;4230684;28;20039;-61
2024/01/19 09:33:56;;;;;;;26.05;24.13;;;;;;;;;;4230521;28;20407;-62
2024/01/19 09:35:57;;;;;;;26.00;23.95;;;;;;;;;;4230320;28;20047;-62
2024/01/19 09:37:59;;;;;;;28.55;25.98;;;;;;;;;;4222425;28;20486;-62
2024/01/19 09:40:04;;;;;;;25.55;24.23;;;;;;;;;;4230971;28;20046;-62
2024/01/19 09:42:17;;;;;;;25.95;23.67;;;;;;;;;;4230592;28;20474;-62
2024/01/19 09:44:19;;;;;;;24.85;22.85;;;;;;;;;;4212416;28;20044;-62
2024/01/19 09:46:25;;;;;;;25.65;23.90;;;;;;;;;;4230588;28;20074;-62
2024/01/19 09:48:33;;;;;;;25.17;23.40;;;;;;;;;;4230862;28;20039;-62
2024/01/19 09:50:36;;;;;;;24.92;22.80;;;;;;;;;;4230451;28;20035;-62
2024/01/19 09:52:45;;;;;;;26.10;23.95;;;;;;;;;;4230490;28;20460;-62
2024/01/19 09:54:47;;;;;;;24.80;22.63;;;;;;;;;;4230632;28;20046;-62
2024/01/19 09:56:48;;;;;;;24.42;22.65;;;;;;;;;;4230401;28;20058;-62
2024/01/19 09:58:53;;;;;;;23.92;22.63;;;;;;;;;;4230406;28;20039;-62
2024/01/19 10:00:56;;;;;;;22.92;21.45;;;;;;;;;;4230315;28;20039;-61
2024/01/19 10:02:59;;;;;;;24.60;22.92;;;;;;;;;;4230208;28;20036;-61
2024/01/19 10:05:03;;;;;;;24.10;22.15;;;;;;;;;;4230298;28;20051;-62
2024/01/19 10:07:04;;;;;;;25.20;23.52;;;;;;;;;;4230136;28;20088;-62
2024/01/19 10:09:06;;;;;;;21.43;20.03;;;;;;;;;;4230227;28;20088;-62
2024/01/19 10:11:08;;;;;;;23.85;22.67;;;;;;;;;;4230027;28;20046;-61
2024/01/19 10:13:33;;;;;;;25.23;23.48;;;;;;;;;;4230178;28;20071;-61
2024/01/19 10:15:35;;;;;;;27.30;24.95;;;;;;;;;;4230329;28;20071;-65
2024/01/19 10:17:37;;;;;;;28.10;25.80;;;;;;;;;;4230204;28;20040;-65
2024/01/19 10:19:39;;;;;;;26.55;24.02;;;;;;;;;;4215304;28;20048;-65
2024/01/19 10:21:42;;;;;;;26.25;23.92;;;;;;;;;;4213385;28;20062;-64
2024/01/19 10:23:44;;;;;;;25.35;23.77;;;;;;;;;;4216387;28;20383;-65
2024/01/19 10:25:46;;;;;;;27.60;24.98;;;;;;;;;;4216410;28;20114;-65
2024/01/19 10:27:48;;;;;;;25.50;23.65;;;;;;;;;;4216855;28;20032;-65
2024/01/19 10:29:50;;;;;;;25.63;23.83;;;;;;;;;;4226826;28;20040;-64
2024/01/19 10:31:55;;;;;;;25.58;23.65;;;;;;;;;;4233492;28;20043;-65
2024/01/19 10:33:57;;;;;;;23.98;22.52;;;;;;;;;;4224944;28;20032;-64
2024/01/19 10:35:59;;;;;;;22.23;21.02;;;;;;;;;;4233458;28;20044;-65
2024/01/19 10:38:05;;;;;;;26.10;23.80;;;;;;;;;;4233453;28;20040;-64
2024/01/19 10:40:06;;;;;;;;;;;;;;;;;;4233522;28;20487;-65
2024/01/19 10:42:08;;;;;;;24.60;22.60;;;;;;;;;;4232606;28;19985;-65
2024/01/19 10:44:11;;;;;;;23.63;21.83;;;;;;;;;;4233166;28;20085;-65
2024/01/19 10:46:20;;;;;;;25.00;22.95;;;;;;;;;;4231468;28;20046;-65
2024/01/19 10:48:25;;;;;;;23.67;21.83;;;;;;;;;;4232605;28;20035;-65
2024/01/19 10:50:28;;;;;;;22.83;21.10;;;;;;;;;;4232721;28;20036;-64
2024/01/19 10:52:31;;;;;;;22.92;20.92;;;;;;;;;;4232790;28;20038;-64
2024/01/19 10:54:32;;;;;;;20.25;18.58;;;;;;;;;;4231852;28;20036;-64
2024/01/19 10:56:34;;;;;;;20.50;19.07;;;;;;;;;;4231382;28;20441;-65
2024/01/19 10:58:36;;;;;;;21.17;19.58;;;;;;;;;;4233069;28;20372;-64
2024/01/19 11:00:38;;;;;;;22.13;20.17;;;;;;;;;;4232485;28;20039;-65
2024/01/19 11:02:41;;;;;;;18.30;16.75;;;;;;;;;;4232450;28;20417;-65
2024/01/19 11:04:44;;;;;;;18.58;16.95;;;;;;;;;;4214333;28;20068;-65
2024/01/19 11:06:46;;;;;;;18.35;16.88;;;;;;;;;;4232738;28;20093;-65
2024/01/19 11:08:48;;;;;;;17.33;15.98;;;;;;;;;;4207779;28;20037;-65
2024/01/19 11:10:49;;;;;;;20.90;19.02;;;;;;;;;;4232197;28;20028;-65
2024/01/19 11:12:55;;;;;;;33.33;28.80;;;;;;;;;;4232341;28;20058;-65
2024/01/19 11:14:57;;;;;;;44.47;32.95;;;;;;;;;;4232515;28;20462;-65
2024/01/19 11:16:58;;;;;;;21.25;19.35;;;;;;;;;;4231663;28;20031;-65
2024/01/19 11:19:00;;;;;;;22.92;20.60;;;;;;;;;;4232106;28;20042;-65
2024/01/19 11:21:02;;;;;;;;;;;;;;;;;;4231868;28;20112;-65
2024/01/19 11:23:05;;;;;;;20.83;18.92;;;;;;;;;;4231641;28;19958;-64
2024/01/19 11:25:09;;;;;;;23.13;21.02;;;;;;;;;;4230517;28;20032;-65
2024/01/19 11:27:21;;;;;;;15.57;14.13;;;;;;;;;;4229336;28;20032;-65
2024/01/19 11:29:25;;;;;;;15.93;14.52;;;;;;;;;;4230804;28;20045;-64
2024/01/19 11:31:34;;;;;;;16.73;15.02;;;;;;;;;;4223641;28;20032;-64
2024/01/19 11:33:39;;;;;;;15.38;14.05;;;;;;;;;;4231949;28;20039;-64
2024/01/19 11:35:41;;;;;;;16.45;15.20;;;;;;;;;;4230867;28;20445;-65
2024/01/19 11:37:46;;;;;;;18.85;17.42;;;;;;;;;;4213500;28;20408;-65
2024/01/19 11:39:48;;;;;;;18.48;17.45;;;;;;;;;;4231659;28;20451;-65
2024/01/19 11:41:50;;;;;;;19.97;18.57;;;;;;;;;;4232460;28;20495;-64
2024/01/19 11:43:52;;;;;;;22.67;20.97;;;;;;;;;;4231780;28;20387;-64
2024/01/19 11:45:54;;;;;;;22.35;20.45;;;;;;;;;;4232095;28;20491;-65
2024/01/19 11:47:55;;;;;;;19.48;17.60;;;;;;;;;;4231895;28;20045;-64
2024/01/19 11:49:57;;;;;;;19.67;18.35;;;;;;;;;;4232095;28;20503;-64
2024/01/19 11:52:03;;;;;;;19.73;18.33;;;;;;;;;;4232028;28;20495;-64